Time,TemperatureF,DewpointF,PressureIn,WindDirection,WindDirectionDegrees,WindSpeedMPH,WindSpeedGustMPH,Humidity,HourlyPrecipIn,Conditions,Clouds,dailyrainin,SoftwareType,DateUTC
2013-10-10 00:02:00,56.5,48.7,29.42,SSE,150,0.0,0.0,75,0.00,,,0.00,meteohub,2013-10-10 05:02:00,
2013-10-10 00:07:00,56.3,48.6,29.42,SSE,150,0.0,0.0,75,0.00,,,0.00,meteohub,2013-10-10 05:07:00,
2013-10-10 00:12:00,56.1,48.4,29.42,SSE,150,0.0,0.0,75,0.00,,,0.00,meteohub,2013-10-10 05:12:00,
2013-10-10 00:17:00,55.9,48.6,29.42,SSE,150,0.0,0.0,76,0.00,,,0.00,meteohub,2013-10-10 05:17:00,
2013-10-10 00:22:00,55.9,48.6,29.42,SSE,150,0.0,0.0,76,0.00,,,0.00,meteohub,2013-10-10 05:22:00,
2013-10-10 00:27:00,55.8,48.4,29.42,SSE,150,0.0,0.0,76,0.00,,,0.00,meteohub,2013-10-10 05:27:00,
2013-10-10 00:33:00,55.8,48.4,29.42,SSE,150,0.0,0.0,76,0.00,,,0.00,meteohub,2013-10-10 05:33:00,
2013-10-10 00:38:00,55.6,48.2,29.42,SSE,150,0.0,0.0,76,0.00,,,0.00,meteohub,2013-10-10 05:38:00,
2013-10-10 00:43:00,55.2,48.2,29.42,SSE,150,0.0,0.0,77,0.00,,,0.00,meteohub,2013-10-10 05:43:00,
2013-10-10 00:48:00,55.2,48.6,29.41,SSE,150,0.0,0.0,78,0.00,,,0.00,meteohub,2013-10-10 05:48:00,
2013-10-10 00:53:00,55.0,48.4,29.41,SSE,150,0.0,0.0,78,0.00,,,0.00,meteohub,2013-10-10 05:53:00,
2013-10-10 00:58:00,54.9,48.2,29.41,SSE,150,0.0,0.0,78,0.00,,,0.00,meteohub,2013-10-10 05:58:00,
2013-10-10 01:03:00,54.7,48.4,29.41,SSE,150,0.0,0.0,79,0.00,,,0.00,meteohub,2013-10-10 06:03:00,
2013-10-10 01:08:00,54.7,48.4,29.41,SSE,150,0.0,0.0,79,0.00,,,0.00,meteohub,2013-10-10 06:08:00,
2013-10-10 01:13:00,54.5,48.4,29.41,SSE,150,0.0,0.0,80,0.00,,,0.00,meteohub,2013-10-10 06:13:00,
2013-10-10 01:18:00,54.3,48.2,29.41,SSE,150,0.0,0.0,80,0.00,,,0.00,meteohub,2013-10-10 06:18:00,
2013-10-10 01:23:00,54.3,48.2,29.42,SSE,150,0.0,0.0,80,0.00,,,0.00,meteohub,2013-10-10 06:23:00,
2013-10-10 01:28:00,54.1,48.4,29.41,SSE,150,0.0,0.0,81,0.00,,,0.00,meteohub,2013-10-10 06:28:00,
2013-10-10 01:33:00,54.1,48.4,29.41,SSE,150,0.0,0.0,81,0.00,,,0.00,meteohub,2013-10-10 06:33:00,
2013-10-10 01:38:00,54.1,48.4,29.42,SSE,150,0.0,0.0,81,0.00,,,0.00,meteohub,2013-10-10 06:38:00,
2013-10-10 01:43:00,54.0,48.6,29.42,SSE,150,0.0,0.0,82,0.00,,,0.00,meteohub,2013-10-10 06:43:00,
2013-10-10 01:48:00,54.0,48.6,29.42,SSE,150,0.0,0.0,82,0.00,,,0.00,meteohub,2013-10-10 06:48:00,
2013-10-10 01:53:00,53.8,48.4,29.42,SSE,150,0.0,0.0,82,0.00,,,0.00,meteohub,2013-10-10 06:53:00,
2013-10-10 01:58:00,53.8,48.4,29.42,SSE,150,0.0,0.0,82,0.00,,,0.00,meteohub,2013-10-10 06:58:00,
2013-10-10 02:03:00,53.8,48.4,29.42,SSE,150,0.0,0.0,82,0.00,,,0.00,meteohub,2013-10-10 07:03:00,
2013-10-10 02:08:00,53.8,48.7,29.42,SSE,150,0.0,0.0,83,0.00,,,0.00,meteohub,2013-10-10 07:08:00,
2013-10-10 02:13:00,53.6,48.6,29.42,SSE,150,0.0,0.0,83,0.00,,,0.00,meteohub,2013-10-10 07:13:00,
2013-10-10 02:18:00,53.6,48.6,29.42,SSE,150,0.0,0.0,83,0.00,,,0.00,meteohub,2013-10-10 07:18:00,
2013-10-10 02:23:00,53.4,48.4,29.42,SSE,150,0.0,0.0,83,0.00,,,0.00,meteohub,2013-10-10 07:23:00,
2013-10-10 02:28:00,53.4,48.4,29.43,SSE,150,0.0,0.0,83,0.00,,,0.00,meteohub,2013-10-10 07:28:00,
2013-10-10 02:33:00,53.2,48.2,29.42,SSE,150,0.0,0.0,83,0.00,,,0.00,meteohub,2013-10-10 07:33:00,
2013-10-10 02:38:00,53.2,48.6,29.42,SSE,150,0.0,0.0,84,0.00,,,0.00,meteohub,2013-10-10 07:38:00,
2013-10-10 02:43:00,53.1,48.4,29.42,SSE,150,0.0,0.0,84,0.00,,,0.00,meteohub,2013-10-10 07:43:00,
2013-10-10 02:48:00,53.1,48.4,29.42,SSE,150,0.0,0.0,84,0.00,,,0.00,meteohub,2013-10-10 07:48:00,
2013-10-10 02:53:00,52.9,48.2,29.42,SSE,150,0.0,0.0,84,0.00,,,0.00,meteohub,2013-10-10 07:53:00,
2013-10-10 02:58:00,52.7,48.0,29.42,SSE,150,0.0,0.0,84,0.00,,,0.00,meteohub,2013-10-10 07:58:00,
2013-10-10 03:03:00,52.5,47.8,29.42,SSE,150,0.0,0.0,84,0.00,,,0.00,meteohub,2013-10-10 08:03:00,
2013-10-10 03:08:00,52.5,48.2,29.42,SSE,150,0.0,0.0,85,0.00,,,0.00,meteohub,2013-10-10 08:08:00,
2013-10-10 03:13:00,52.3,48.0,29.42,SSE,150,0.0,0.0,85,0.00,,,0.00,meteohub,2013-10-10 08:13:00,
2013-10-10 03:18:00,52.3,48.0,29.42,SSE,150,0.0,0.0,85,0.00,,,0.00,meteohub,2013-10-10 08:18:00,
2013-10-10 03:23:00,52.3,48.0,29.42,SSE,150,0.0,0.0,85,0.00,,,0.00,meteohub,2013-10-10 08:23:00,
2013-10-10 03:28:00,52.3,48.2,29.42,SSE,150,0.0,0.0,86,0.00,,,0.00,meteohub,2013-10-10 08:28:00,
2013-10-10 03:33:00,52.2,48.0,29.42,SSE,150,0.0,0.0,86,0.00,,,0.00,meteohub,2013-10-10 08:33:00,
2013-10-10 03:38:00,52.2,48.0,29.42,SSE,150,0.0,0.0,86,0.00,,,0.00,meteohub,2013-10-10 08:38:00,
2013-10-10 03:43:00,52.2,48.4,29.42,SSE,150,0.0,0.0,87,0.00,,,0.00,meteohub,2013-10-10 08:43:00,
2013-10-10 03:48:00,52.3,48.9,29.42,SSE,150,0.0,2.0,88,0.00,,,0.00,meteohub,2013-10-10 08:48:00,
2013-10-10 03:53:00,52.5,49.1,29.42,SSE,150,0.0,2.0,88,0.00,,,0.00,meteohub,2013-10-10 08:53:00,
2013-10-10 03:58:00,52.9,49.5,29.42,SSE,150,0.0,2.0,88,0.00,,,0.00,meteohub,2013-10-10 08:58:00,
2013-10-10 04:03:00,52.9,49.5,29.42,SSE,150,0.0,1.0,88,0.00,,,0.00,meteohub,2013-10-10 09:03:00,
2013-10-10 04:08:00,52.9,49.1,29.42,SSE,150,0.0,0.0,87,0.00,,,0.00,meteohub,2013-10-10 09:08:00,
2013-10-10 04:13:00,52.9,49.1,29.42,SSE,150,0.0,0.0,87,0.00,,,0.00,meteohub,2013-10-10 09:13:00,
2013-10-10 04:18:00,52.9,49.1,29.42,SSE,150,0.0,0.0,87,0.00,,,0.00,meteohub,2013-10-10 09:18:00,
2013-10-10 04:23:00,52.7,48.9,29.42,SSE,150,0.0,0.0,87,0.00,,,0.00,meteohub,2013-10-10 09:23:00,
2013-10-10 04:28:00,52.7,48.9,29.42,SSE,150,0.0,0.0,87,0.00,,,0.00,meteohub,2013-10-10 09:28:00,
2013-10-10 04:33:00,52.5,48.7,29.42,SSE,150,0.0,0.0,87,0.00,,,0.00,meteohub,2013-10-10 09:33:00,
2013-10-10 04:38:00,52.5,48.7,29.42,SSE,150,0.0,0.0,87,0.00,,,0.00,meteohub,2013-10-10 09:38:00,
2013-10-10 04:43:00,52.3,48.6,29.42,SSE,150,0.0,0.0,87,0.00,,,0.00,meteohub,2013-10-10 09:43:00,
2013-10-10 04:48:00,52.3,48.6,29.42,SSE,150,0.0,0.0,87,0.00,,,0.00,meteohub,2013-10-10 09:48:00,
2013-10-10 04:53:00,52.3,48.6,29.42,SSE,150,0.0,0.0,87,0.00,,,0.00,meteohub,2013-10-10 09:53:00,
2013-10-10 04:58:00,52.3,48.9,29.42,SSE,150,0.0,0.0,88,0.00,,,0.00,meteohub,2013-10-10 09:58:00,
2013-10-10 05:03:00,52.2,48.7,29.42,SSE,150,0.0,0.0,88,0.00,,,0.00,meteohub,2013-10-10 10:03:00,
2013-10-10 05:08:00,52.2,48.7,29.42,SSE,150,0.0,0.0,88,0.00,,,0.00,meteohub,2013-10-10 10:08:00,
2013-10-10 05:13:00,52.2,48.7,29.43,SSE,150,0.0,0.0,88,0.00,,,0.00,meteohub,2013-10-10 10:13:00,
2013-10-10 05:18:00,52.2,49.1,29.42,SSE,150,0.0,0.0,89,0.00,,,0.00,meteohub,2013-10-10 10:18:00,
2013-10-10 05:23:00,52.3,49.3,29.42,SSE,151,0.0,0.0,89,0.00,,,0.00,meteohub,2013-10-10 10:23:00,
2013-10-10 05:28:00,52.3,49.3,29.43,SSE,151,0.0,0.0,89,0.00,,,0.00,meteohub,2013-10-10 10:28:00,
2013-10-10 05:33:00,52.3,49.3,29.43,SSE,151,0.0,0.0,89,0.00,,,0.00,meteohub,2013-10-10 10:33:00,
2013-10-10 05:38:00,52.2,49.1,29.43,SSE,151,0.0,0.0,89,0.00,,,0.00,meteohub,2013-10-10 10:38:00,
2013-10-10 05:43:00,52.2,49.1,29.43,SSE,151,0.0,0.0,89,0.00,,,0.00,meteohub,2013-10-10 10:43:00,
2013-10-10 05:48:00,52.0,48.9,29.43,SSE,151,0.0,0.0,89,0.00,,,0.00,meteohub,2013-10-10 10:48:00,
2013-10-10 05:53:00,51.6,48.2,29.43,SSE,151,0.0,0.0,88,0.00,,,0.00,meteohub,2013-10-10 10:53:00,
2013-10-10 05:58:00,51.4,48.0,29.43,SSE,151,0.0,0.0,88,0.00,,,0.00,meteohub,2013-10-10 10:58:00,
2013-10-10 06:03:00,51.3,48.2,29.43,SSE,151,0.0,0.0,89,0.00,,,0.00,meteohub,2013-10-10 11:03:00,
2013-10-10 06:08:00,51.3,48.2,29.43,SSE,151,0.0,0.0,89,0.00,,,0.00,meteohub,2013-10-10 11:08:00,
2013-10-10 06:13:00,51.3,48.2,29.43,SSE,151,0.0,0.0,89,0.00,,,0.00,meteohub,2013-10-10 11:13:00,
2013-10-10 06:18:00,51.3,48.2,29.43,SSE,151,0.0,0.0,89,0.00,,,0.00,meteohub,2013-10-10 11:18:00,
2013-10-10 06:23:00,51.3,48.4,29.43,SSE,151,0.0,0.0,90,0.00,,,0.00,meteohub,2013-10-10 11:23:00,
2013-10-10 06:28:00,51.4,48.9,29.43,SSE,151,0.0,0.0,91,0.00,,,0.00,meteohub,2013-10-10 11:28:00,
2013-10-10 06:33:00,51.4,48.9,29.43,SSE,151,0.0,0.0,91,0.00,,,0.00,meteohub,2013-10-10 11:33:00,
2013-10-10 06:39:00,51.6,49.1,29.43,SSE,151,0.0,0.0,91,0.00,,,0.00,meteohub,2013-10-10 11:39:00,
2013-10-10 06:44:00,51.6,49.1,29.43,SSE,151,0.0,0.0,91,0.00,,,0.00,meteohub,2013-10-10 11:44:00,
2013-10-10 06:49:00,51.6,49.1,29.43,SSE,151,0.0,0.0,91,0.00,,,0.00,meteohub,2013-10-10 11:49:00,
2013-10-10 06:54:00,51.6,49.1,29.43,SSE,151,0.0,0.0,91,0.00,,,0.00,meteohub,2013-10-10 11:54:00,
2013-10-10 06:59:00,51.4,48.9,29.43,SSE,151,0.0,0.0,91,0.00,,,0.00,meteohub,2013-10-10 11:59:00,
2013-10-10 07:04:00,51.4,48.9,29.43,SSE,151,0.0,0.0,91,0.00,,,0.00,meteohub,2013-10-10 12:04:00,
2013-10-10 07:09:00,51.4,48.9,29.43,SSE,151,0.0,0.0,91,0.00,,,0.00,meteohub,2013-10-10 12:09:00,
2013-10-10 07:14:00,51.4,48.9,29.43,SSE,151,0.0,0.0,91,0.00,,,0.00,meteohub,2013-10-10 12:14:00,
2013-10-10 07:19:00,51.4,48.9,29.43,SSE,151,0.0,0.0,91,0.00,,,0.00,meteohub,2013-10-10 12:19:00,
2013-10-10 07:24:00,51.4,48.9,29.44,SSE,151,0.0,0.0,91,0.00,,,0.00,meteohub,2013-10-10 12:24:00,
2013-10-10 07:29:00,51.4,49.3,29.44,SSE,151,0.0,0.0,92,0.00,,,0.00,meteohub,2013-10-10 12:29:00,
2013-10-10 07:34:00,51.4,49.3,29.44,SSE,151,0.0,0.0,92,0.00,,,0.00,meteohub,2013-10-10 12:34:00,
2013-10-10 07:39:00,51.4,49.3,29.44,SSE,151,0.0,0.0,92,0.00,,,0.00,meteohub,2013-10-10 12:39:00,
2013-10-10 07:44:00,51.4,49.3,29.44,SSE,151,0.0,0.0,92,0.00,,,0.00,meteohub,2013-10-10 12:44:00,
2013-10-10 07:49:00,51.4,49.3,29.44,SSE,151,0.0,0.0,92,0.00,,,0.00,meteohub,2013-10-10 12:49:00,
2013-10-10 07:54:00,51.4,49.3,29.44,SSE,151,0.0,0.0,92,0.00,,,0.00,meteohub,2013-10-10 12:54:00,
2013-10-10 07:59:00,51.6,49.5,29.45,SSE,152,0.0,0.0,92,0.00,,,0.00,meteohub,2013-10-10 12:59:00,
2013-10-10 08:04:00,51.8,49.6,29.45,SSE,152,0.0,0.0,92,0.00,,,0.00,meteohub,2013-10-10 13:04:00,
2013-10-10 08:09:00,52.2,49.8,29.45,SSE,152,0.0,0.0,92,0.00,,,0.00,meteohub,2013-10-10 13:09:00,
2013-10-10 08:14:00,52.3,49.8,29.45,SSE,152,0.0,0.0,91,0.00,,,0.00,meteohub,2013-10-10 13:14:00,
2013-10-10 08:19:00,52.9,50.4,29.45,SSE,152,0.0,0.0,91,0.00,,,0.00,meteohub,2013-10-10 13:19:00,
2013-10-10 08:24:00,53.4,50.9,29.45,SSE,152,0.0,0.0,91,0.00,,,0.00,meteohub,2013-10-10 13:24:00,
2013-10-10 08:29:00,54.3,51.8,29.45,SSE,152,0.0,0.0,91,0.00,,,0.00,meteohub,2013-10-10 13:29:00,
2013-10-10 08:34:00,55.2,52.3,29.45,SSE,152,0.0,0.0,90,0.00,,,0.00,meteohub,2013-10-10 13:34:00,
2013-10-10 08:39:00,56.1,53.2,29.45,SSE,152,0.0,1.0,90,0.00,,,0.00,meteohub,2013-10-10 13:39:00,
2013-10-10 08:44:00,56.7,53.4,29.45,SSE,158,0.0,1.0,89,0.00,,,0.00,meteohub,2013-10-10 13:44:00,
2013-10-10 08:49:00,57.4,53.8,29.46,SSE,158,0.0,1.0,88,0.00,,,0.00,meteohub,2013-10-10 13:49:00,
2013-10-10 08:54:00,57.7,54.0,29.46,SSE,159,0.0,2.0,87,0.00,,,0.00,meteohub,2013-10-10 13:54:00,
2013-10-10 08:59:00,58.3,54.5,29.46,South,169,0.0,3.0,87,0.00,,,0.00,meteohub,2013-10-10 13:59:00,
2013-10-10 09:04:00,58.6,54.5,29.46,South,169,0.0,3.0,86,0.00,,,0.00,meteohub,2013-10-10 14:04:00,
2013-10-10 09:09:00,59.2,54.7,29.46,South,169,0.0,3.0,85,0.00,,,0.00,meteohub,2013-10-10 14:09:00,
2013-10-10 09:14:00,59.7,54.9,29.45,South,169,2.0,4.0,84,0.00,,,0.00,meteohub,2013-10-10 14:14:00,
2013-10-10 09:19:00,60.4,55.2,29.45,South,172,0.0,4.0,83,0.00,,,0.00,meteohub,2013-10-10 14:19:00,
2013-10-10 09:24:00,60.8,55.2,29.45,SSW,195,3.0,4.0,82,0.00,,,0.00,meteohub,2013-10-10 14:24:00,
2013-10-10 09:29:00,61.2,55.6,29.45,South,181,0.0,4.0,82,0.00,,,0.00,meteohub,2013-10-10 14:29:00,
2013-10-10 09:34:00,61.7,55.8,29.45,SSE,160,0.0,6.0,81,0.00,,,0.00,meteohub,2013-10-10 14:34:00,
2013-10-10 09:39:00,62.2,56.3,29.45,SSE,152,2.0,6.0,81,0.00,,,0.00,meteohub,2013-10-10 14:39:00,
2013-10-10 09:44:00,63.0,56.7,29.45,SSE,151,0.0,5.0,80,0.00,,,0.00,meteohub,2013-10-10 14:44:00,
2013-10-10 09:49:00,63.7,57.0,29.45,South,180,1.0,5.0,79,0.00,,,0.00,meteohub,2013-10-10 14:49:00,
2013-10-10 09:54:00,64.4,57.4,29.46,South,174,2.0,5.0,78,0.00,,,0.00,meteohub,2013-10-10 14:54:00,
2013-10-10 09:59:00,65.1,57.4,29.45,SSE,154,4.0,5.0,76,0.00,,,0.00,meteohub,2013-10-10 14:59:00,
2013-10-10 10:04:00,65.7,57.6,29.46,South,180,0.0,5.0,75,0.00,,,0.00,meteohub,2013-10-10 15:04:00,
2013-10-10 10:09:00,66.2,58.1,29.46,South,185,0.0,6.0,75,0.00,,,0.00,meteohub,2013-10-10 15:09:00,
2013-10-10 10:14:00,66.7,57.7,29.46,South,171,0.0,6.0,73,0.00,,,0.00,meteohub,2013-10-10 15:14:00,
2013-10-10 10:19:00,67.5,58.1,29.46,South,184,0.0,5.0,72,0.00,,,0.00,meteohub,2013-10-10 15:19:00,
2013-10-10 10:24:00,68.2,58.1,29.46,South,178,2.0,5.0,70,0.00,,,0.00,meteohub,2013-10-10 15:24:00,
2013-10-10 10:29:00,68.5,57.6,29.46,SSW,196,0.0,5.0,68,0.00,,,0.00,meteohub,2013-10-10 15:29:00,
2013-10-10 10:34:00,68.7,57.7,29.45,South,177,0.0,7.0,68,0.00,,,0.00,meteohub,2013-10-10 15:34:00,
2013-10-10 10:39:00,69.1,57.7,29.45,SSE,155,0.0,7.0,67,0.00,,,0.00,meteohub,2013-10-10 15:39:00,
2013-10-10 10:44:00,69.3,57.9,29.45,South,182,3.0,7.0,67,0.00,,,0.00,meteohub,2013-10-10 15:44:00,
2013-10-10 10:49:00,69.4,57.6,29.45,South,174,0.0,7.0,66,0.00,,,0.00,meteohub,2013-10-10 15:49:00,
2013-10-10 10:54:00,69.6,57.7,29.45,South,171,0.0,7.0,66,0.00,,,0.00,meteohub,2013-10-10 15:54:00,
2013-10-10 10:59:00,70.0,58.1,29.44,SE,141,4.0,7.0,66,0.00,,,0.00,meteohub,2013-10-10 15:59:00,
2013-10-10 11:04:00,70.3,57.6,29.44,SW,226,1.0,9.0,64,0.00,,,0.00,meteohub,2013-10-10 16:04:00,
2013-10-10 11:10:00,70.9,57.7,29.44,SW,234,2.0,8.0,63,0.00,,,0.00,meteohub,2013-10-10 16:10:00,
2013-10-10 11:15:00,71.1,57.4,29.44,SSW,205,0.0,10.0,62,0.00,,,0.00,meteohub,2013-10-10 16:15:00,
2013-10-10 11:20:00,71.2,57.9,29.43,SE,140,4.0,11.0,63,0.00,,,0.00,meteohub,2013-10-10 16:20:00,
2013-10-10 11:25:00,71.6,58.3,29.43,SE,146,2.0,11.0,63,0.00,,,0.00,meteohub,2013-10-10 16:25:00,
2013-10-10 11:30:00,71.8,58.1,29.43,South,171,0.0,11.0,62,0.00,,,0.00,meteohub,2013-10-10 16:30:00,
2013-10-10 11:35:00,72.0,57.7,29.43,South,182,2.0,10.0,61,0.00,,,0.00,meteohub,2013-10-10 16:35:00,
2013-10-10 11:41:00,72.3,57.7,29.43,South,181,0.0,10.0,60,0.00,,,0.00,meteohub,2013-10-10 16:41:00,
2013-10-10 11:46:00,72.7,57.6,29.42,SE,146,1.0,11.0,59,0.00,,,0.00,meteohub,2013-10-10 16:46:00,
2013-10-10 11:51:00,72.9,57.2,29.42,South,178,2.0,11.0,58,0.00,,,0.00,meteohub,2013-10-10 16:51:00,
2013-10-10 11:56:00,73.0,57.4,29.42,WSW,244,5.0,9.0,58,0.00,,,0.00,meteohub,2013-10-10 16:56:00,
2013-10-10 12:01:00,73.6,56.8,29.42,South,189,1.0,10.0,56,0.00,,,0.00,meteohub,2013-10-10 17:01:00,
2013-10-10 12:06:00,74.1,56.8,29.42,SSE,165,0.0,10.0,55,0.00,,,0.00,meteohub,2013-10-10 17:06:00,
2013-10-10 12:11:00,74.5,57.2,29.42,SSE,154,0.0,10.0,55,0.00,,,0.00,meteohub,2013-10-10 17:11:00,
2013-10-10 12:16:00,74.7,56.8,29.42,SSE,154,3.0,10.0,54,0.00,,,0.00,meteohub,2013-10-10 17:16:00,
2013-10-10 12:21:00,74.7,55.9,29.42,SSW,199,1.0,10.0,52,0.00,,,0.00,meteohub,2013-10-10 17:21:00,
2013-10-10 12:26:00,74.7,56.5,29.42,SSW,204,5.0,9.0,53,0.00,,,0.00,meteohub,2013-10-10 17:26:00,
2013-10-10 12:31:00,74.8,56.5,29.41,SSW,192,6.0,12.0,53,0.00,,,0.00,meteohub,2013-10-10 17:31:00,
2013-10-10 12:36:00,75.0,57.2,29.41,West,271,1.0,12.0,54,0.00,,,0.00,meteohub,2013-10-10 17:36:00,
2013-10-10 12:41:00,75.0,56.1,29.41,South,171,5.0,12.0,52,0.00,,,0.00,meteohub,2013-10-10 17:41:00,
2013-10-10 12:46:00,74.8,56.1,29.40,South,184,0.0,11.0,52,0.00,,,0.00,meteohub,2013-10-10 17:46:00,
2013-10-10 12:51:00,74.8,56.1,29.41,South,171,0.0,10.0,52,0.00,,,0.00,meteohub,2013-10-10 17:51:00,
2013-10-10 12:56:00,75.4,55.9,29.40,SW,229,4.0,11.0,51,0.00,,,0.00,meteohub,2013-10-10 17:56:00,
2013-10-10 13:01:00,75.6,56.1,29.40,SE,146,0.0,11.0,51,0.00,,,0.00,meteohub,2013-10-10 18:01:00,
2013-10-10 13:06:00,75.7,56.8,29.40,SSE,157,0.0,11.0,52,0.00,,,0.00,meteohub,2013-10-10 18:06:00,
2013-10-10 13:11:00,75.9,56.5,29.39,SSE,157,0.0,13.0,51,0.00,,,0.00,meteohub,2013-10-10 18:11:00,
2013-10-10 13:16:00,76.1,55.6,29.39,SSE,157,2.0,13.0,49,0.00,,,0.00,meteohub,2013-10-10 18:16:00,
2013-10-10 13:21:00,76.1,56.1,29.39,South,175,2.0,13.0,50,0.00,,,0.00,meteohub,2013-10-10 18:21:00,
2013-10-10 13:26:00,76.3,55.2,29.39,South,185,2.0,12.0,48,0.00,,,0.00,meteohub,2013-10-10 18:26:00,
2013-10-10 13:31:00,76.5,55.4,29.38,West,264,0.0,12.0,48,0.00,,,0.00,meteohub,2013-10-10 18:31:00,
2013-10-10 13:37:00,76.5,54.7,29.38,SSW,206,4.0,12.0,47,0.00,,,0.00,meteohub,2013-10-10 18:37:00,
2013-10-10 13:42:00,76.5,55.4,29.38,SE,134,10.0,11.0,48,0.00,,,0.00,meteohub,2013-10-10 18:42:00,
2013-10-10 13:47:00,76.5,55.9,29.37,SW,220,2.0,15.0,49,0.00,,,0.00,meteohub,2013-10-10 18:47:00,
2013-10-10 13:52:00,76.8,54.5,29.37,WSW,243,1.0,15.0,46,0.00,,,0.00,meteohub,2013-10-10 18:52:00,
2013-10-10 13:57:00,77.2,54.9,29.37,South,190,0.0,15.0,46,0.00,,,0.00,meteohub,2013-10-10 18:57:00,
2013-10-10 14:02:00,77.0,55.8,29.36,ESE,118,2.0,10.0,48,0.00,,,0.00,meteohub,2013-10-10 19:02:00,
2013-10-10 14:08:00,77.0,55.8,29.37,SSW,210,0.0,13.0,48,0.00,,,0.00,meteohub,2013-10-10 19:08:00,
2013-10-10 14:13:00,77.2,55.9,29.36,SSW,192,5.0,13.0,48,0.00,,,0.00,meteohub,2013-10-10 19:13:00,
2013-10-10 14:18:00,77.2,55.4,29.36,SSE,148,0.0,13.0,47,0.00,,,0.00,meteohub,2013-10-10 19:18:00,
2013-10-10 14:23:00,77.2,55.9,29.36,South,175,14.0,14.0,48,0.00,,,0.00,meteohub,2013-10-10 19:23:00,
2013-10-10 14:28:00,77.4,56.7,29.36,SSE,159,9.0,12.0,49,0.00,,,0.00,meteohub,2013-10-10 19:28:00,
2013-10-10 14:33:00,77.0,55.8,29.35,South,190,2.0,18.0,48,0.00,,,0.00,meteohub,2013-10-10 19:33:00,
2013-10-10 14:38:00,77.2,56.5,29.36,SE,140,0.0,18.0,49,0.00,,,0.00,meteohub,2013-10-10 19:38:00,
2013-10-10 14:43:00,77.4,56.1,29.35,SE,144,1.0,14.0,48,0.00,,,0.00,meteohub,2013-10-10 19:43:00,
2013-10-10 14:48:00,77.5,55.8,29.35,SE,141,0.0,11.0,47,0.00,,,0.00,meteohub,2013-10-10 19:48:00,
2013-10-10 14:53:00,78.1,55.0,29.35,South,179,0.0,11.0,45,0.00,,,0.00,meteohub,2013-10-10 19:53:00,
2013-10-10 14:58:00,77.7,54.7,29.35,SE,142,7.0,12.0,45,0.00,,,0.00,meteohub,2013-10-10 19:58:00,
2013-10-10 15:03:00,77.7,54.7,29.35,South,181,0.0,12.0,45,0.00,,,0.00,meteohub,2013-10-10 20:03:00,
2013-10-10 15:08:00,78.1,55.0,29.34,South,182,4.0,12.0,45,0.00,,,0.00,meteohub,2013-10-10 20:08:00,
2013-10-10 15:13:00,78.1,54.3,29.34,ESE,123,0.0,10.0,44,0.00,,,0.00,meteohub,2013-10-10 20:13:00,
2013-10-10 15:18:00,77.9,54.9,29.34,South,183,1.0,14.0,45,0.00,,,0.00,meteohub,2013-10-10 20:18:00,
2013-10-10 15:23:00,77.7,54.7,29.34,SSE,155,0.0,14.0,45,0.00,,,0.00,meteohub,2013-10-10 20:23:00,
2013-10-10 15:28:00,77.7,54.7,29.34,SSE,163,0.0,12.0,45,0.00,,,0.00,meteohub,2013-10-10 20:28:00,
2013-10-10 15:32:00,78.1,54.3,29.34,SSE,148,1.0,12.0,44,0.00,,,0.00,meteohub,2013-10-10 20:32:00,
2013-10-10 15:37:00,77.9,53.6,29.34,WSW,250,5.0,14.0,43,0.00,,,0.00,meteohub,2013-10-10 20:37:00,
2013-10-10 15:42:00,78.3,53.2,29.34,South,175,3.0,14.0,42,0.00,,,0.00,meteohub,2013-10-10 20:42:00,
2013-10-10 15:47:00,78.4,53.4,29.34,SW,220,4.0,14.0,42,0.00,,,0.00,meteohub,2013-10-10 20:47:00,
2013-10-10 15:52:00,78.3,53.2,29.33,SSE,161,0.0,10.0,42,0.00,,,0.00,meteohub,2013-10-10 20:52:00,
2013-10-10 15:57:00,78.4,54.1,29.33,SSE,157,6.0,10.0,43,0.00,,,0.00,meteohub,2013-10-10 20:57:00,
2013-10-10 16:02:00,78.4,52.7,29.33,SW,214,1.0,10.0,41,0.00,,,0.00,meteohub,2013-10-10 21:02:00,
2013-10-10 16:07:00,78.4,52.7,29.33,SW,226,0.0,13.0,41,0.00,,,0.00,meteohub,2013-10-10 21:07:00,
2013-10-10 16:12:00,78.6,53.6,29.33,South,174,8.0,13.0,42,0.00,,,0.00,meteohub,2013-10-10 21:12:00,
2013-10-10 16:17:00,78.4,54.1,29.33,SE,138,11.0,13.0,43,0.00,,,0.00,meteohub,2013-10-10 21:17:00,
2013-10-10 16:22:00,78.3,54.5,29.33,South,183,6.0,12.0,44,0.00,,,0.00,meteohub,2013-10-10 21:22:00,
2013-10-10 16:27:00,78.3,54.0,29.33,SSE,166,3.0,13.0,43,0.00,,,0.00,meteohub,2013-10-10 21:27:00,
2013-10-10 16:32:00,78.3,53.2,29.33,South,171,0.0,13.0,42,0.00,,,0.00,meteohub,2013-10-10 21:32:00,
2013-10-10 16:37:00,78.1,53.8,29.33,SW,215,0.0,13.0,43,0.00,,,0.00,meteohub,2013-10-10 21:37:00,
2013-10-10 16:42:00,78.3,54.0,29.33,South,182,2.0,12.0,43,0.00,,,0.00,meteohub,2013-10-10 21:42:00,
2013-10-10 16:47:00,78.3,54.5,29.32,SE,126,2.0,12.0,44,0.00,,,0.00,meteohub,2013-10-10 21:47:00,
2013-10-10 16:52:00,78.4,53.4,29.32,SE,130,5.0,6.0,42,0.00,,,0.00,meteohub,2013-10-10 21:52:00,
2013-10-10 16:57:00,78.4,53.4,29.32,SSW,205,3.0,7.0,42,0.00,,,0.00,meteohub,2013-10-10 21:57:00,
2013-10-10 17:02:00,78.3,53.2,29.32,South,189,4.0,7.0,42,0.00,,,0.00,meteohub,2013-10-10 22:02:00,
2013-10-10 17:07:00,78.1,53.8,29.32,SSW,207,0.0,11.0,43,0.00,,,0.00,meteohub,2013-10-10 22:07:00,
2013-10-10 17:12:00,77.9,54.3,29.32,South,171,0.0,11.0,44,0.00,,,0.00,meteohub,2013-10-10 22:12:00,
2013-10-10 17:17:00,77.7,53.4,29.32,SE,127,0.0,11.0,43,0.00,,,0.00,meteohub,2013-10-10 22:17:00,
2013-10-10 17:22:00,77.5,54.0,29.32,SE,128,0.0,10.0,44,0.00,,,0.00,meteohub,2013-10-10 22:22:00,
2013-10-10 17:27:00,77.5,54.0,29.32,SSE,150,0.0,10.0,44,0.00,,,0.00,meteohub,2013-10-10 22:27:00,
2013-10-10 17:32:00,77.4,54.3,29.32,SE,126,5.0,12.0,45,0.00,,,0.00,meteohub,2013-10-10 22:32:00,
2013-10-10 17:37:00,77.2,53.6,29.31,SSE,162,0.0,12.0,44,0.00,,,0.00,meteohub,2013-10-10 22:37:00,
2013-10-10 17:42:00,77.0,54.0,29.31,South,183,0.0,9.0,45,0.00,,,0.00,meteohub,2013-10-10 22:42:00,
2013-10-10 17:47:00,76.8,53.8,29.31,SSE,155,0.0,9.0,45,0.00,,,0.00,meteohub,2013-10-10 22:47:00,
2013-10-10 17:52:00,76.6,53.8,29.31,SE,140,0.0,7.0,45,0.00,,,0.00,meteohub,2013-10-10 22:52:00,
2013-10-10 17:57:00,76.5,54.1,29.31,SSE,157,4.0,6.0,46,0.00,,,0.00,meteohub,2013-10-10 22:57:00,
2013-10-10 18:02:00,76.3,54.0,29.31,South,172,0.0,6.0,46,0.00,,,0.00,meteohub,2013-10-10 23:02:00,
2013-10-10 18:07:00,75.9,53.6,29.31,South,175,0.0,6.0,46,0.00,,,0.00,meteohub,2013-10-10 23:07:00,
2013-10-10 18:12:00,75.7,54.1,29.31,South,188,0.0,5.0,47,0.00,,,0.00,meteohub,2013-10-10 23:12:00,
2013-10-10 18:17:00,75.6,54.0,29.31,South,188,0.0,4.0,47,0.00,,,0.00,meteohub,2013-10-10 23:17:00,
2013-10-10 18:22:00,75.4,53.8,29.31,South,188,0.0,3.0,47,0.00,,,0.00,meteohub,2013-10-10 23:22:00,
2013-10-10 18:28:00,75.0,54.0,29.31,South,188,0.0,2.0,48,0.00,,,0.00,meteohub,2013-10-10 23:28:00,
2013-10-10 18:33:00,74.7,54.3,29.31,South,188,0.0,2.0,49,0.00,,,0.00,meteohub,2013-10-10 23:33:00,
2013-10-10 18:38:00,74.5,54.1,29.31,South,188,0.0,2.0,49,0.00,,,0.00,meteohub,2013-10-10 23:38:00,
2013-10-10 18:43:00,74.1,54.3,29.31,South,188,0.0,0.0,50,0.00,,,0.00,meteohub,2013-10-10 23:43:00,
2013-10-10 18:48:00,73.8,54.0,29.31,South,188,0.0,0.0,50,0.00,,,0.00,meteohub,2013-10-10 23:48:00,
2013-10-10 18:53:00,73.4,54.7,29.31,South,188,0.0,0.0,52,0.00,,,0.00,meteohub,2013-10-10 23:53:00,
2013-10-10 18:58:00,72.9,54.7,29.30,South,188,1.0,0.0,53,0.00,,,0.00,meteohub,2013-10-10 23:58:00,
2013-10-10 19:03:00,72.5,55.4,29.30,South,188,0.0,2.0,55,0.00,,,0.00,meteohub,2013-10-11 00:03:00,
2013-10-10 19:08:00,72.0,55.4,29.31,South,171,0.0,3.0,56,0.00,,,0.00,meteohub,2013-10-11 00:08:00,
2013-10-10 19:13:00,71.6,55.6,29.31,South,171,0.0,3.0,57,0.00,,,0.00,meteohub,2013-10-11 00:13:00,
2013-10-10 19:18:00,71.2,55.8,29.31,South,171,0.0,3.0,58,0.00,,,0.00,meteohub,2013-10-11 00:18:00,
2013-10-10 19:23:00,71.1,55.9,29.31,South,171,0.0,2.0,59,0.00,,,0.00,meteohub,2013-10-11 00:23:00,
2013-10-10 19:28:00,70.7,56.1,29.30,South,171,0.0,1.0,60,0.00,,,0.00,meteohub,2013-10-11 00:28:00,
2013-10-10 19:33:00,70.3,56.3,29.31,South,171,0.0,1.0,61,0.00,,,0.00,meteohub,2013-10-11 00:33:00,
2013-10-10 19:38:00,70.2,56.5,29.30,South,171,0.0,1.0,62,0.00,,,0.00,meteohub,2013-10-11 00:38:00,
2013-10-10 19:43:00,70.0,56.3,29.30,South,171,0.0,1.0,62,0.00,,,0.00,meteohub,2013-10-11 00:43:00,
2013-10-10 19:48:00,69.6,56.5,29.31,South,171,0.0,1.0,63,0.00,,,0.00,meteohub,2013-10-11 00:48:00,
2013-10-10 19:53:00,69.4,56.7,29.31,South,171,0.0,1.0,64,0.00,,,0.00,meteohub,2013-10-11 00:53:00,
2013-10-10 19:58:00,69.3,56.5,29.30,South,171,0.0,2.0,64,0.00,,,0.00,meteohub,2013-10-11 00:58:00,
2013-10-10 20:03:00,68.9,56.7,29.30,South,171,0.0,2.0,65,0.00,,,0.00,meteohub,2013-10-11 01:03:00,
2013-10-10 20:08:00,68.7,56.5,29.30,South,171,0.0,2.0,65,0.00,,,0.00,meteohub,2013-10-11 01:08:00,
2013-10-10 20:13:00,68.5,56.7,29.30,South,171,0.0,2.0,66,0.00,,,0.00,meteohub,2013-10-11 01:13:00,
2013-10-10 20:18:00,68.4,56.5,29.30,South,171,0.0,4.0,66,0.00,,,0.00,meteohub,2013-10-11 01:18:00,
2013-10-10 20:23:00,68.0,56.7,29.30,South,171,0.0,4.0,67,0.00,,,0.00,meteohub,2013-10-11 01:23:00,
2013-10-10 20:28:00,67.6,56.3,29.30,South,171,0.0,3.0,67,0.00,,,0.00,meteohub,2013-10-11 01:28:00,
2013-10-10 20:33:00,67.5,56.5,29.30,South,171,0.0,3.0,68,0.00,,,0.00,meteohub,2013-10-11 01:33:00,
2013-10-10 20:38:00,67.3,56.3,29.30,South,171,0.0,3.0,68,0.00,,,0.00,meteohub,2013-10-11 01:38:00,
2013-10-10 20:43:00,67.1,56.7,29.30,South,171,0.0,2.0,69,0.00,,,0.00,meteohub,2013-10-11 01:43:00,
2013-10-10 20:48:00,66.9,56.5,29.30,South,171,0.0,2.0,69,0.00,,,0.00,meteohub,2013-10-11 01:48:00,
2013-10-10 20:53:00,66.7,56.3,29.30,South,174,0.0,2.0,69,0.00,,,0.00,meteohub,2013-10-11 01:53:00,
2013-10-10 20:58:00,66.7,56.3,29.30,South,173,0.0,3.0,69,0.00,,,0.00,meteohub,2013-10-11 01:58:00,
2013-10-10 21:03:00,66.6,56.5,29.30,South,173,0.0,5.0,70,0.00,,,0.00,meteohub,2013-10-11 02:03:00,
2013-10-10 21:08:00,66.6,56.5,29.30,South,173,0.0,5.0,70,0.00,,,0.00,meteohub,2013-10-11 02:08:00,
2013-10-10 21:13:00,66.4,56.3,29.30,South,173,0.0,5.0,70,0.00,,,0.00,meteohub,2013-10-11 02:13:00,
2013-10-10 21:18:00,66.4,56.3,29.31,South,173,0.0,1.0,70,0.00,,,0.00,meteohub,2013-10-11 02:18:00,
2013-10-10 21:23:00,66.4,56.3,29.30,South,173,0.0,1.0,70,0.00,,,0.00,meteohub,2013-10-11 02:23:00,
2013-10-10 21:28:00,66.2,56.1,29.30,South,173,0.0,1.0,70,0.00,,,0.00,meteohub,2013-10-11 02:28:00,
2013-10-10 21:33:00,66.2,56.1,29.30,South,173,0.0,1.0,70,0.00,,,0.00,meteohub,2013-10-11 02:33:00,
2013-10-10 21:38:00,66.2,56.5,29.31,South,173,0.0,1.0,71,0.00,,,0.00,meteohub,2013-10-11 02:38:00,
2013-10-10 21:43:00,66.0,56.3,29.30,South,173,0.0,1.0,71,0.00,,,0.00,meteohub,2013-10-11 02:43:00,
2013-10-10 21:48:00,66.0,56.3,29.30,South,173,0.0,1.0,71,0.00,,,0.00,meteohub,2013-10-11 02:48:00,
2013-10-10 21:53:00,66.0,56.3,29.30,South,173,0.0,1.0,71,0.00,,,0.00,meteohub,2013-10-11 02:53:00,
2013-10-10 21:58:00,65.8,56.5,29.30,South,173,0.0,1.0,72,0.00,,,0.00,meteohub,2013-10-11 02:58:00,
2013-10-10 22:03:00,65.8,56.5,29.30,South,173,0.0,0.0,72,0.00,,,0.00,meteohub,2013-10-11 03:03:00,
2013-10-10 22:08:00,65.7,56.3,29.31,South,173,0.0,0.0,72,0.00,,,0.00,meteohub,2013-10-11 03:08:00,
2013-10-10 22:13:00,65.7,56.3,29.31,South,173,0.0,1.0,72,0.00,,,0.00,meteohub,2013-10-11 03:13:00,
2013-10-10 22:18:00,65.7,56.8,29.31,South,173,0.0,1.0,73,0.00,,,0.00,meteohub,2013-10-11 03:18:00,
2013-10-10 22:23:00,65.5,56.7,29.30,South,173,0.0,1.0,73,0.00,,,0.00,meteohub,2013-10-11 03:23:00,
2013-10-10 22:28:00,65.3,56.5,29.30,South,173,0.0,1.0,73,0.00,,,0.00,meteohub,2013-10-11 03:28:00,
2013-10-10 22:33:00,65.1,56.7,29.30,South,176,0.0,1.0,74,0.00,,,0.00,meteohub,2013-10-11 03:33:00,
2013-10-10 22:39:00,65.1,56.7,29.30,South,176,0.0,1.0,74,0.00,,,0.00,meteohub,2013-10-11 03:39:00,
2013-10-10 22:44:00,64.9,56.5,29.31,South,176,0.0,1.0,74,0.00,,,0.00,meteohub,2013-10-11 03:44:00,
2013-10-10 22:49:00,64.9,56.5,29.30,South,176,0.0,1.0,74,0.00,,,0.00,meteohub,2013-10-11 03:49:00,
2013-10-10 22:54:00,64.8,56.7,29.30,South,177,0.0,2.0,75,0.00,,,0.00,meteohub,2013-10-11 03:54:00,
2013-10-10 22:59:00,64.8,56.7,29.30,South,186,0.0,3.0,75,0.00,,,0.00,meteohub,2013-10-11 03:59:00,
2013-10-10 23:01:00,64.8,56.7,29.30,South,186,0.0,4.0,75,0.00,,,0.00,meteohub,2013-10-11 04:01:00,
2013-10-10 23:02:00,64.8,56.7,29.30,South,185,0.0,4.0,75,0.00,,,0.00,meteohub,2013-10-11 04:02:00,
2013-10-10 23:07:00,64.8,56.7,29.30,South,186,0.0,4.0,75,0.00,,,0.00,meteohub,2013-10-11 04:07:00,
2013-10-10 23:12:00,64.6,56.5,29.30,South,186,0.0,3.0,75,0.00,,,0.00,meteohub,2013-10-11 04:12:00,
2013-10-10 23:18:00,64.6,56.5,29.30,South,186,2.0,3.0,75,0.00,,,0.00,meteohub,2013-10-11 04:18:00,
2013-10-10 23:23:00,64.6,56.8,29.30,South,185,0.0,5.0,76,0.00,,,0.00,meteohub,2013-10-11 04:23:00,
2013-10-10 23:28:00,64.6,56.8,29.30,South,183,4.0,5.0,76,0.00,,,0.00,meteohub,2013-10-11 04:28:00,
2013-10-10 23:33:00,64.6,56.8,29.30,SSE,161,0.0,5.0,76,0.00,,,0.00,meteohub,2013-10-11 04:33:00,
2013-10-10 23:38:00,64.6,56.8,29.30,South,190,2.0,7.0,76,0.00,,,0.00,meteohub,2013-10-11 04:38:00,
2013-10-10 23:43:00,64.4,56.3,29.30,South,188,3.0,10.0,75,0.00,,,0.00,meteohub,2013-10-11 04:43:00,
2013-10-10 23:48:00,64.2,56.5,29.30,South,188,0.0,10.0,76,0.00,,,0.00,meteohub,2013-10-11 04:48:00,
2013-10-10 23:53:00,64.2,56.5,29.30,South,171,0.0,10.0,76,0.00,,,0.00,meteohub,2013-10-11 04:53:00,
2013-10-10 23:58:00,64.0,56.3,29.30,South,171,2.0,4.0,76,0.00,,,0.00,meteohub,2013-10-11 04:58:00,